sensor_id;sensor_type;location;lat;lon;timestamp;P1;durP1;ratioP1;P2;durP2;ratioP2
50779;SDS011;36748;37.428;-121.972;2023-06-24T00:01:41;3.08;;;0.50;;
50779;SDS011;36748;37.428;-121.972;2023-06-24T00:04:07;0.85;;;0.52;;
50779;SDS011;36748;37.428;-121.972;2023-06-24T00:06:33;3.70;;;0.70;;
50779;SDS011;36748;37.428;-121.972;2023-06-24T00:08:59;6.13;;;0.90;;
50779;SDS011;36748;37.428;-121.972;2023-06-24T00:11:27;1.65;;;0.50;;
50779;SDS011;36748;37.428;-121.972;2023-06-24T00:13:54;1.77;;;0.70;;
50779;SDS011;36748;37.428;-121.972;2023-06-24T00:16:21;3.42;;;0.70;;
50779;SDS011;36748;37.428;-121.972;2023-06-24T00:18:53;2.50;;;0.63;;
50779;SDS011;36748;37.428;-121.972;2023-06-24T00:21:20;1.88;;;0.70;;
50779;SDS011;36748;37.428;-121.972;2023-06-24T00:23:47;2.65;;;0.73;;
50779;SDS011;36748;37.428;-121.972;2023-06-24T00:26:14;5.80;;;0.70;;
50779;SDS011;36748;37.428;-121.972;2023-06-24T00:28:41;1.95;;;0.90;;
50779;SDS011;36748;37.428;-121.972;2023-06-24T00:31:08;2.10;;;0.73;;
50779;SDS011;36748;37.428;-121.972;2023-06-24T00:33:36;2.80;;;1.38;;
50779;SDS011;36748;37.428;-121.972;2023-06-24T00:36:02;1.95;;;0.80;;
50779;SDS011;36748;37.428;-121.972;2023-06-24T00:38:29;3.95;;;0.77;;
50779;SDS011;36748;37.428;-121.972;2023-06-24T00:40:58;0.82;;;0.60;;
50779;SDS011;36748;37.428;-121.972;2023-06-24T00:43:24;4.68;;;0.90;;
50779;SDS011;36748;37.428;-121.972;2023-06-24T00:45:50;4.88;;;1.10;;
50779;SDS011;36748;37.428;-121.972;2023-06-24T00:48:18;6.43;;;1.10;;
50779;SDS011;36748;37.428;-121.972;2023-06-24T00:50:46;4.05;;;0.95;;
50779;SDS011;36748;37.428;-121.972;2023-06-24T00:53:15;7.53;;;1.23;;
50779;SDS011;36748;37.428;-121.972;2023-06-24T00:55:42;2.22;;;1.00;;
50779;SDS011;36748;37.428;-121.972;2023-06-24T00:58:11;6.72;;;1.13;;
50779;SDS011;36748;37.428;-121.972;2023-06-24T01:00:44;2.67;;;1.42;;
50779;SDS011;36748;37.428;-121.972;2023-06-24T01:03:11;3.38;;;1.13;;
50779;SDS011;36748;37.428;-121.972;2023-06-24T01:05:42;2.30;;;1.15;;
50779;SDS011;36748;37.428;-121.972;2023-06-24T01:08:10;97.47;;;2.90;;
50779;SDS011;36748;37.428;-121.972;2023-06-24T01:10:41;10.57;;;1.67;;
50779;SDS011;36748;37.428;-121.972;2023-06-24T01:13:10;4.55;;;1.10;;
50779;SDS011;36748;37.428;-121.972;2023-06-24T01:15:36;6.00;;;0.98;;
50779;SDS011;36748;37.428;-121.972;2023-06-24T01:32:53;16.52;;;5.68;;
50779;SDS011;36748;37.428;-121.972;2023-06-24T01:35:21;37.95;;;7.82;;
50779;SDS011;36748;37.428;-121.972;2023-06-24T01:37:52;48.47;;;10.88;;
50779;SDS011;36748;37.428;-121.972;2023-06-24T01:40:24;84.07;;;20.15;;
50779;SDS011;36748;37.428;-121.972;2023-06-24T01:42:52;78.07;;;16.95;;
50779;SDS011;36748;37.428;-121.972;2023-06-24T01:45:22;58.65;;;14.20;;
50779;SDS011;36748;37.428;-121.972;2023-06-24T01:47:53;59.92;;;17.33;;
50779;SDS011;36748;37.428;-121.972;2023-06-24T01:50:45;85.93;;;24.20;;
50779;SDS011;36748;37.428;-121.972;2023-06-24T01:53:19;100.22;;;38.03;;
50779;SDS011;36748;37.428;-121.972;2023-06-24T01:55:46;101.32;;;35.72;;
50779;SDS011;36748;37.428;-121.972;2023-06-24T01:58:14;94.47;;;36.67;;
50779;SDS011;36748;37.428;-121.972;2023-06-24T02:00:43;78.18;;;30.40;;
50779;SDS011;36748;37.428;-121.972;2023-06-24T02:03:09;74.53;;;29.15;;
50779;SDS011;36748;37.428;-121.972;2023-06-24T02:05:36;75.10;;;26.02;;
50779;SDS011;36748;37.428;-121.972;2023-06-24T02:08:05;67.10;;;25.40;;
50779;SDS011;36748;37.428;-121.972;2023-06-24T02:10:34;60.10;;;24.08;;
50779;SDS011;36748;37.428;-121.972;2023-06-24T02:13:03;65.43;;;24.08;;
50779;SDS011;36748;37.428;-121.972;2023-06-24T02:15:30;62.25;;;23.00;;
50779;SDS011;36748;37.428;-121.972;2023-06-24T02:17:57;49.83;;;21.05;;
50779;SDS011;36748;37.428;-121.972;2023-06-24T02:20:24;57.67;;;20.02;;
50779;SDS011;36748;37.428;-121.972;2023-06-24T02:22:55;51.03;;;18.95;;
50779;SDS011;36748;37.428;-121.972;2023-06-24T02:25:22;44.33;;;18.95;;
50779;SDS011;36748;37.428;-121.972;2023-06-24T02:27:49;45.38;;;18.98;;
50779;SDS011;36748;37.428;-121.972;2023-06-24T02:30:16;36.65;;;16.38;;
50779;SDS011;36748;37.428;-121.972;2023-06-24T02:32:42;36.13;;;15.48;;
50779;SDS011;36748;37.428;-121.972;2023-06-24T02:35:08;39.72;;;15.63;;
50779;SDS011;36748;37.428;-121.972;2023-06-24T02:37:35;34.05;;;14.18;;
50779;SDS011;36748;37.428;-121.972;2023-06-24T02:40:01;28.98;;;14.10;;
50779;SDS011;36748;37.428;-121.972;2023-06-24T02:42:30;225.70;;;124.47;;
50779;SDS011;36748;37.428;-121.972;2023-06-24T02:44:56;143.45;;;72.70;;
50779;SDS011;36748;37.428;-121.972;2023-06-24T02:47:22;94.25;;;43.53;;
50779;SDS011;36748;37.428;-121.972;2023-06-24T02:49:49;117.68;;;59.95;;
50779;SDS011;36748;37.428;-121.972;2023-06-24T02:52:16;82.40;;;44.92;;
50779;SDS011;36748;37.428;-121.972;2023-06-24T02:54:43;76.63;;;39.30;;
50779;SDS011;36748;37.428;-121.972;2023-06-24T02:57:09;60.17;;;31.98;;
50779;SDS011;36748;37.428;-121.972;2023-06-24T02:59:36;65.70;;;32.47;;
50779;SDS011;36748;37.428;-121.972;2023-06-24T03:02:02;67.10;;;31.00;;
50779;SDS011;36748;37.428;-121.972;2023-06-24T03:04:30;51.13;;;26.48;;
50779;SDS011;36748;37.428;-121.972;2023-06-24T03:06:56;47.97;;;23.98;;
50779;SDS011;36748;37.428;-121.972;2023-06-24T03:09:24;48.25;;;23.70;;
50779;SDS011;36748;37.428;-121.972;2023-06-24T03:11:52;42.20;;;19.98;;
50779;SDS011;36748;37.428;-121.972;2023-06-24T03:14:18;37.92;;;17.92;;
50779;SDS011;36748;37.428;-121.972;2023-06-24T03:16:45;32.47;;;17.10;;
50779;SDS011;36748;37.428;-121.972;2023-06-24T03:19:11;36.80;;;16.67;;
50779;SDS011;36748;37.428;-121.972;2023-06-24T03:21:37;26.98;;;15.02;;
50779;SDS011;36748;37.428;-121.972;2023-06-24T03:24:04;26.63;;;14.73;;
50779;SDS011;36748;37.428;-121.972;2023-06-24T03:29:03;27.67;;;13.70;;
50779;SDS011;36748;37.428;-121.972;2023-06-24T03:31:29;25.95;;;13.75;;
50779;SDS011;36748;37.428;-121.972;2023-06-24T03:33:56;28.83;;;11.63;;
50779;SDS011;36748;37.428;-121.972;2023-06-24T03:36:22;25.85;;;12.35;;
50779;SDS011;36748;37.428;-121.972;2023-06-24T03:38:49;20.98;;;11.38;;
50779;SDS011;36748;37.428;-121.972;2023-06-24T03:41:16;25.30;;;11.38;;
50779;SDS011;36748;37.428;-121.972;2023-06-24T03:43:42;22.70;;;11.48;;
50779;SDS011;36748;37.428;-121.972;2023-06-24T03:46:10;20.15;;;10.77;;
50779;SDS011;36748;37.428;-121.972;2023-06-24T03:48:37;25.00;;;10.70;;
50779;SDS011;36748;37.428;-121.972;2023-06-24T03:51:03;20.05;;;9.95;;
50779;SDS011;36748;37.428;-121.972;2023-06-24T03:53:30;18.10;;;8.80;;
50779;SDS011;36748;37.428;-121.972;2023-06-24T03:55:56;20.20;;;9.88;;
50779;SDS011;36748;37.428;-121.972;2023-06-24T03:58:22;16.92;;;9.32;;
50779;SDS011;36748;37.428;-121.972;2023-06-24T04:00:48;16.98;;;8.77;;
50779;SDS011;36748;37.428;-121.972;2023-06-24T04:03:15;16.50;;;8.52;;
50779;SDS011;36748;37.428;-121.972;2023-06-24T04:05:44;14.98;;;8.15;;
50779;SDS011;36748;37.428;-121.972;2023-06-24T04:08:10;17.38;;;8.75;;
50779;SDS011;36748;37.428;-121.972;2023-06-24T04:10:37;13.57;;;8.23;;
50779;SDS011;36748;37.428;-121.972;2023-06-24T04:13:03;15.60;;;7.80;;
50779;SDS011;36748;37.428;-121.972;2023-06-24T04:15:29;14.88;;;7.80;;
50779;SDS011;36748;37.428;-121.972;2023-06-24T04:17:55;12.38;;;7.25;;
50779;SDS011;36748;37.428;-121.972;2023-06-24T04:20:24;13.52;;;7.68;;
50779;SDS011;36748;37.428;-121.972;2023-06-24T04:22:50;18.75;;;7.68;;
50779;SDS011;36748;37.428;-121.972;2023-06-24T04:25:16;13.02;;;6.97;;
50779;SDS011;36748;37.428;-121.972;2023-06-24T04:27:42;11.13;;;6.32;;
50779;SDS011;36748;37.428;-121.972;2023-06-24T04:30:08;11.40;;;7.07;;
50779;SDS011;36748;37.428;-121.972;2023-06-24T04:32:35;16.77;;;8.73;;
50779;SDS011;36748;37.428;-121.972;2023-06-24T04:35:01;16.90;;;8.13;;
50779;SDS011;36748;37.428;-121.972;2023-06-24T04:37:29;24.90;;;8.38;;
50779;SDS011;36748;37.428;-121.972;2023-06-24T04:39:55;72.80;;;31.73;;
50779;SDS011;36748;37.428;-121.972;2023-06-24T04:42:21;68.72;;;30.90;;
50779;SDS011;36748;37.428;-121.972;2023-06-24T04:44:48;78.30;;;33.30;;
50779;SDS011;36748;37.428;-121.972;2023-06-24T04:47:17;79.20;;;34.25;;
50779;SDS011;36748;37.428;-121.972;2023-06-24T04:49:44;77.70;;;34.33;;
50779;SDS011;36748;37.428;-121.972;2023-06-24T04:52:11;68.32;;;29.73;;
50779;SDS011;36748;37.428;-121.972;2023-06-24T04:54:37;67.45;;;29.42;;
50779;SDS011;36748;37.428;-121.972;2023-06-24T04:57:05;56.40;;;25.67;;
50779;SDS011;36748;37.428;-121.972;2023-06-24T04:59:34;58.10;;;26.88;;
50779;SDS011;36748;37.428;-121.972;2023-06-24T05:02:01;58.05;;;25.70;;
50779;SDS011;36748;37.428;-121.972;2023-06-24T05:04:28;55.80;;;24.83;;
50779;SDS011;36748;37.428;-121.972;2023-06-24T05:06:54;57.78;;;26.25;;
50779;SDS011;36748;37.428;-121.972;2023-06-24T05:09:20;52.53;;;24.98;;
50779;SDS011;36748;37.428;-121.972;2023-06-24T05:11:46;58.83;;;24.95;;
50779;SDS011;36748;37.428;-121.972;2023-06-24T05:14:12;53.63;;;23.85;;
50779;SDS011;36748;37.428;-121.972;2023-06-24T05:16:38;49.13;;;23.23;;
50779;SDS011;36748;37.428;-121.972;2023-06-24T05:19:05;50.88;;;23.63;;
50779;SDS011;36748;37.428;-121.972;2023-06-24T05:21:31;52.00;;;22.92;;
50779;SDS011;36748;37.428;-121.972;2023-06-24T05:23:57;54.28;;;22.05;;
50779;SDS011;36748;37.428;-121.972;2023-06-24T05:26:23;46.35;;;20.88;;
50779;SDS011;36748;37.428;-121.972;2023-06-24T05:28:49;51.20;;;20.75;;
50779;SDS011;36748;37.428;-121.972;2023-06-24T05:31:15;46.78;;;21.10;;
50779;SDS011;36748;37.428;-121.972;2023-06-24T05:33:42;42.22;;;19.05;;
50779;SDS011;36748;37.428;-121.972;2023-06-24T05:36:08;41.90;;;19.15;;
50779;SDS011;36748;37.428;-121.972;2023-06-24T05:38:34;42.00;;;18.50;;
50779;SDS011;36748;37.428;-121.972;2023-06-24T05:41:00;39.45;;;18.40;;
50779;SDS011;36748;37.428;-121.972;2023-06-24T05:43:27;37.00;;;17.45;;
50779;SDS011;36748;37.428;-121.972;2023-06-24T05:45:54;35.42;;;17.48;;
50779;SDS011;36748;37.428;-121.972;2023-06-24T05:48:20;35.90;;;16.80;;
50779;SDS011;36748;37.428;-121.972;2023-06-24T05:50:46;36.80;;;18.05;;
50779;SDS011;36748;37.428;-121.972;2023-06-24T05:53:12;33.05;;;16.45;;
50779;SDS011;36748;37.428;-121.972;2023-06-24T05:55:38;32.53;;;16.25;;
50779;SDS011;36748;37.428;-121.972;2023-06-24T05:58:04;36.03;;;16.48;;
50779;SDS011;36748;37.428;-121.972;2023-06-24T06:00:31;33.00;;;15.25;;
50779;SDS011;36748;37.428;-121.972;2023-06-24T06:02:57;29.63;;;14.95;;
50779;SDS011;36748;37.428;-121.972;2023-06-24T06:05:23;32.13;;;14.80;;
50779;SDS011;36748;37.428;-121.972;2023-06-24T06:07:49;31.55;;;15.35;;
50779;SDS011;36748;37.428;-121.972;2023-06-24T06:10:15;32.35;;;14.95;;
50779;SDS011;36748;37.428;-121.972;2023-06-24T06:12:43;30.90;;;14.60;;
50779;SDS011;36748;37.428;-121.972;2023-06-24T06:15:10;30.55;;;14.23;;
50779;SDS011;36748;37.428;-121.972;2023-06-24T06:17:37;29.33;;;13.88;;
50779;SDS011;36748;37.428;-121.972;2023-06-24T06:20:03;25.35;;;12.38;;
50779;SDS011;36748;37.428;-121.972;2023-06-24T06:22:30;29.67;;;13.70;;
50779;SDS011;36748;37.428;-121.972;2023-06-24T06:24:57;23.98;;;12.40;;
50779;SDS011;36748;37.428;-121.972;2023-06-24T06:27:23;29.42;;;13.52;;
50779;SDS011;36748;37.428;-121.972;2023-06-24T06:29:49;23.67;;;12.00;;
50779;SDS011;36748;37.428;-121.972;2023-06-24T06:32:15;23.38;;;12.50;;
50779;SDS011;36748;37.428;-121.972;2023-06-24T06:34:41;22.05;;;10.82;;
50779;SDS011;36748;37.428;-121.972;2023-06-24T06:37:08;23.83;;;11.43;;
50779;SDS011;36748;37.428;-121.972;2023-06-24T06:39:34;20.63;;;11.32;;
50779;SDS011;36748;37.428;-121.972;2023-06-24T06:42:00;20.70;;;11.13;;
50779;SDS011;36748;37.428;-121.972;2023-06-24T06:44:26;21.58;;;11.63;;
50779;SDS011;36748;37.428;-121.972;2023-06-24T06:46:52;21.70;;;10.73;;
50779;SDS011;36748;37.428;-121.972;2023-06-24T06:49:19;18.67;;;10.38;;
50779;SDS011;36748;37.428;-121.972;2023-06-24T06:51:45;21.05;;;10.43;;
50779;SDS011;36748;37.428;-121.972;2023-06-24T06:54:11;20.42;;;10.25;;
50779;SDS011;36748;37.428;-121.972;2023-06-24T06:56:37;21.83;;;10.13;;
50779;SDS011;36748;37.428;-121.972;2023-06-24T06:59:04;19.33;;;10.02;;
50779;SDS011;36748;37.428;-121.972;2023-06-24T07:01:31;19.75;;;9.68;;
50779;SDS011;36748;37.428;-121.972;2023-06-24T07:03:57;18.00;;;9.13;;
50779;SDS011;36748;37.428;-121.972;2023-06-24T07:06:23;16.60;;;9.02;;
50779;SDS011;36748;37.428;-121.972;2023-06-24T07:08:49;15.70;;;9.10;;
50779;SDS011;36748;37.428;-121.972;2023-06-24T07:11:15;15.43;;;8.63;;
50779;SDS011;36748;37.428;-121.972;2023-06-24T07:13:42;17.10;;;9.07;;
50779;SDS011;36748;37.428;-121.972;2023-06-24T07:16:08;15.35;;;8.68;;
50779;SDS011;36748;37.428;-121.972;2023-06-24T07:18:34;15.48;;;8.45;;
50779;SDS011;36748;37.428;-121.972;2023-06-24T07:21:00;15.70;;;7.93;;
50779;SDS011;36748;37.428;-121.972;2023-06-24T07:23:27;19.60;;;8.93;;
50779;SDS011;36748;37.428;-121.972;2023-06-24T07:25:53;15.25;;;8.38;;
50779;SDS011;36748;37.428;-121.972;2023-06-24T07:28:19;16.98;;;7.97;;
50779;SDS011;36748;37.428;-121.972;2023-06-24T07:30:45;16.05;;;7.82;;
50779;SDS011;36748;37.428;-121.972;2023-06-24T07:33:11;11.85;;;7.05;;
50779;SDS011;36748;37.428;-121.972;2023-06-24T07:35:37;15.38;;;7.57;;
50779;SDS011;36748;37.428;-121.972;2023-06-24T07:38:04;13.18;;;7.00;;
50779;SDS011;36748;37.428;-121.972;2023-06-24T07:40:30;13.38;;;7.22;;
50779;SDS011;36748;37.428;-121.972;2023-06-24T07:42:56;10.77;;;6.90;;
50779;SDS011;36748;37.428;-121.972;2023-06-24T07:45:22;14.00;;;6.55;;
50779;SDS011;36748;37.428;-121.972;2023-06-24T07:47:50;11.52;;;6.60;;
50779;SDS011;36748;37.428;-121.972;2023-06-24T07:50:16;11.57;;;6.13;;
50779;SDS011;36748;37.428;-121.972;2023-06-24T07:52:42;11.68;;;6.22;;
50779;SDS011;36748;37.428;-121.972;2023-06-24T07:55:08;9.70;;;6.05;;
50779;SDS011;36748;37.428;-121.972;2023-06-24T07:57:34;10.52;;;6.18;;
50779;SDS011;36748;37.428;-121.972;2023-06-24T08:00:01;9.98;;;6.30;;
50779;SDS011;36748;37.428;-121.972;2023-06-24T08:02:28;10.05;;;5.85;;
50779;SDS011;36748;37.428;-121.972;2023-06-24T08:04:54;9.60;;;5.68;;
50779;SDS011;36748;37.428;-121.972;2023-06-24T08:07:20;11.45;;;5.97;;
50779;SDS011;36748;37.428;-121.972;2023-06-24T08:09:46;9.77;;;5.72;;
50779;SDS011;36748;37.428;-121.972;2023-06-24T08:12:12;9.88;;;5.88;;
50779;SDS011;36748;37.428;-121.972;2023-06-24T08:14:38;8.30;;;5.47;;
50779;SDS011;36748;37.428;-121.972;2023-06-24T08:17:05;8.95;;;5.30;;
50779;SDS011;36748;37.428;-121.972;2023-06-24T08:19:31;8.75;;;5.57;;
50779;SDS011;36748;37.428;-121.972;2023-06-24T08:21:57;9.18;;;5.35;;
50779;SDS011;36748;37.428;-121.972;2023-06-24T08:24:23;9.15;;;5.47;;
50779;SDS011;36748;37.428;-121.972;2023-06-24T08:26:50;8.98;;;5.30;;
50779;SDS011;36748;37.428;-121.972;2023-06-24T08:29:16;8.68;;;5.13;;
50779;SDS011;36748;37.428;-121.972;2023-06-24T08:31:42;8.43;;;4.95;;
50779;SDS011;36748;37.428;-121.972;2023-06-24T08:34:08;8.40;;;4.90;;
50779;SDS011;36748;37.428;-121.972;2023-06-24T08:36:34;7.43;;;4.75;;
50779;SDS011;36748;37.428;-121.972;2023-06-24T08:39:02;7.60;;;4.53;;
50779;SDS011;36748;37.428;-121.972;2023-06-24T08:41:28;7.28;;;4.65;;
50779;SDS011;36748;37.428;-121.972;2023-06-24T08:43:55;6.88;;;4.35;;
50779;SDS011;36748;37.428;-121.972;2023-06-24T08:46:21;7.18;;;4.05;;
50779;SDS011;36748;37.428;-121.972;2023-06-24T08:48:49;7.95;;;4.35;;
50779;SDS011;36748;37.428;-121.972;2023-06-24T08:51:24;7.20;;;4.30;;
50779;SDS011;36748;37.428;-121.972;2023-06-24T08:53:53;8.27;;;4.00;;
50779;SDS011;36748;37.428;-121.972;2023-06-24T08:56:19;6.25;;;3.88;;
50779;SDS011;36748;37.428;-121.972;2023-06-24T08:58:46;5.53;;;3.53;;
50779;SDS011;36748;37.428;-121.972;2023-06-24T09:01:12;5.88;;;3.90;;
50779;SDS011;36748;37.428;-121.972;2023-06-24T09:03:38;6.03;;;3.95;;
50779;SDS011;36748;37.428;-121.972;2023-06-24T09:06:24;5.82;;;3.45;;
50779;SDS011;36748;37.428;-121.972;2023-06-24T09:08:54;7.05;;;4.30;;
50779;SDS011;36748;37.428;-121.972;2023-06-24T09:11:27;5.65;;;3.65;;
50779;SDS011;36748;37.428;-121.972;2023-06-24T09:13:54;5.13;;;3.65;;
50779;SDS011;36748;37.428;-121.972;2023-06-24T09:16:23;5.28;;;3.72;;
50779;SDS011;36748;37.428;-121.972;2023-06-24T09:18:50;5.75;;;3.60;;
50779;SDS011;36748;37.428;-121.972;2023-06-24T09:21:24;5.50;;;3.47;;
50779;SDS011;36748;37.428;-121.972;2023-06-24T09:23:56;5.43;;;3.22;;
50779;SDS011;36748;37.428;-121.972;2023-06-24T09:26:23;5.25;;;3.72;;
50779;SDS011;36748;37.428;-121.972;2023-06-24T09:28:50;6.28;;;3.45;;
50779;SDS011;36748;37.428;-121.972;2023-06-24T09:31:16;5.22;;;3.10;;
50779;SDS011;36748;37.428;-121.972;2023-06-24T09:33:43;4.57;;;3.30;;
50779;SDS011;36748;37.428;-121.972;2023-06-24T09:36:13;5.60;;;3.67;;
50779;SDS011;36748;37.428;-121.972;2023-06-24T09:38:40;5.45;;;3.35;;
50779;SDS011;36748;37.428;-121.972;2023-06-24T09:41:09;5.38;;;3.22;;
50779;SDS011;36748;37.428;-121.972;2023-06-24T09:43:37;3.83;;;2.90;;
50779;SDS011;36748;37.428;-121.972;2023-06-24T09:46:07;5.43;;;3.42;;
50779;SDS011;36748;37.428;-121.972;2023-06-24T09:48:34;4.18;;;2.80;;
50779;SDS011;36748;37.428;-121.972;2023-06-24T09:51:01;5.38;;;3.00;;
50779;SDS011;36748;37.428;-121.972;2023-06-24T09:53:31;3.95;;;2.90;;
50779;SDS011;36748;37.428;-121.972;2023-06-24T09:56:03;4.93;;;2.83;;
50779;SDS011;36748;37.428;-121.972;2023-06-24T09:58:31;3.85;;;2.80;;
50779;SDS011;36748;37.428;-121.972;2023-06-24T10:01:04;4.50;;;2.92;;
50779;SDS011;36748;37.428;-121.972;2023-06-24T10:03:34;3.78;;;2.72;;
50779;SDS011;36748;37.428;-121.972;2023-06-24T10:06:02;4.07;;;2.67;;
50779;SDS011;36748;37.428;-121.972;2023-06-24T10:08:29;5.30;;;2.75;;
50779;SDS011;36748;37.428;-121.972;2023-06-24T10:10:56;4.22;;;2.42;;
50779;SDS011;36748;37.428;-121.972;2023-06-24T10:13:22;3.60;;;2.30;;
50779;SDS011;36748;37.428;-121.972;2023-06-24T10:15:48;4.38;;;2.70;;
50779;SDS011;36748;37.428;-121.972;2023-06-24T10:18:34;4.60;;;2.90;;
50779;SDS011;36748;37.428;-121.972;2023-06-24T10:21:02;3.85;;;2.55;;
50779;SDS011;36748;37.428;-121.972;2023-06-24T10:23:32;3.53;;;2.40;;
50779;SDS011;36748;37.428;-121.972;2023-06-24T10:26:07;3.72;;;2.60;;
50779;SDS011;36748;37.428;-121.972;2023-06-24T10:29:08;3.67;;;2.40;;
50779;SDS011;36748;37.428;-121.972;2023-06-24T10:34:24;3.72;;;2.33;;
50779;SDS011;36748;37.428;-121.972;2023-06-24T10:37:04;2.42;;;2.03;;
50779;SDS011;36748;37.428;-121.972;2023-06-24T10:39:54;3.33;;;2.50;;
50779;SDS011;36748;37.428;-121.972;2023-06-24T10:42:26;3.45;;;2.15;;
50779;SDS011;36748;37.428;-121.972;2023-06-24T10:47:35;3.10;;;2.00;;
50779;SDS011;36748;37.428;-121.972;2023-06-24T10:50:02;2.63;;;1.77;;
50779;SDS011;36748;37.428;-121.972;2023-06-24T10:52:29;2.75;;;2.08;;
50779;SDS011;36748;37.428;-121.972;2023-06-24T10:54:57;2.67;;;2.00;;
50779;SDS011;36748;37.428;-121.972;2023-06-24T10:57:27;2.30;;;1.83;;
50779;SDS011;36748;37.428;-121.972;2023-06-24T10:59:54;3.22;;;2.28;;
50779;SDS011;36748;37.428;-121.972;2023-06-24T11:02:22;2.35;;;2.15;;
50779;SDS011;36748;37.428;-121.972;2023-06-24T11:04:52;4.80;;;2.00;;
50779;SDS011;36748;37.428;-121.972;2023-06-24T11:07:30;3.00;;;2.10;;
50779;SDS011;36748;37.428;-121.972;2023-06-24T11:10:04;1.88;;;1.63;;
50779;SDS011;36748;37.428;-121.972;2023-06-24T11:12:32;3.00;;;1.98;;
50779;SDS011;36748;37.428;-121.972;2023-06-24T11:15:09;2.35;;;2.13;;
50779;SDS011;36748;37.428;-121.972;2023-06-24T11:17:37;2.35;;;1.95;;
50779;SDS011;36748;37.428;-121.972;2023-06-24T11:20:11;2.20;;;1.85;;
50779;SDS011;36748;37.428;-121.972;2023-06-24T11:22:42;2.10;;;1.60;;
50779;SDS011;36748;37.428;-121.972;2023-06-24T11:25:16;2.17;;;1.80;;
50779;SDS011;36748;37.428;-121.972;2023-06-24T11:27:47;2.65;;;1.85;;
50779;SDS011;36748;37.428;-121.972;2023-06-24T11:30:13;2.65;;;2.00;;
50779;SDS011;36748;37.428;-121.972;2023-06-24T11:32:42;2.03;;;1.70;;
50779;SDS011;36748;37.428;-121.972;2023-06-24T11:35:09;1.98;;;1.55;;
50779;SDS011;36748;37.428;-121.972;2023-06-24T11:37:40;2.70;;;1.75;;
50779;SDS011;36748;37.428;-121.972;2023-06-24T11:40:10;2.10;;;1.55;;
50779;SDS011;36748;37.428;-121.972;2023-06-24T11:42:41;2.45;;;1.60;;
50779;SDS011;36748;37.428;-121.972;2023-06-24T11:45:10;3.47;;;1.90;;
50779;SDS011;36748;37.428;-121.972;2023-06-24T11:47:38;2.47;;;1.67;;
50779;SDS011;36748;37.428;-121.972;2023-06-24T11:50:05;2.25;;;1.58;;
50779;SDS011;36748;37.428;-121.972;2023-06-24T11:52:33;1.67;;;1.58;;
50779;SDS011;36748;37.428;-121.972;2023-06-24T11:55:18;2.03;;;1.60;;
50779;SDS011;36748;37.428;-121.972;2023-06-24T11:57:56;2.10;;;1.60;;
50779;SDS011;36748;37.428;-121.972;2023-06-24T12:02:54;2.45;;;1.75;;
50779;SDS011;36748;37.428;-121.972;2023-06-24T12:05:26;2.47;;;1.80;;
50779;SDS011;36748;37.428;-121.972;2023-06-24T12:08:02;1.73;;;1.52;;
50779;SDS011;36748;37.428;-121.972;2023-06-24T12:10:33;1.70;;;1.38;;
50779;SDS011;36748;37.428;-121.972;2023-06-24T12:13:01;4.07;;;1.90;;
50779;SDS011;36748;37.428;-121.972;2023-06-24T12:15:28;2.35;;;1.88;;
50779;SDS011;36748;37.428;-121.972;2023-06-24T12:17:54;1.70;;;1.58;;
50779;SDS011;36748;37.428;-121.972;2023-06-24T12:20:20;3.45;;;1.30;;
50779;SDS011;36748;37.428;-121.972;2023-06-24T12:22:47;3.58;;;1.60;;
50779;SDS011;36748;37.428;-121.972;2023-06-24T12:25:14;2.03;;;1.40;;
50779;SDS011;36748;37.428;-121.972;2023-06-24T12:27:41;1.23;;;1.13;;
50779;SDS011;36748;37.428;-121.972;2023-06-24T12:30:09;1.90;;;1.35;;
50779;SDS011;36748;37.428;-121.972;2023-06-24T12:32:36;1.30;;;1.20;;
50779;SDS011;36748;37.428;-121.972;2023-06-24T12:35:02;2.30;;;1.25;;
50779;SDS011;36748;37.428;-121.972;2023-06-24T12:37:32;1.50;;;1.40;;
50779;SDS011;36748;37.428;-121.972;2023-06-24T12:39:59;2.78;;;1.67;;
50779;SDS011;36748;37.428;-121.972;2023-06-24T12:42:25;1.85;;;1.40;;
50779;SDS011;36748;37.428;-121.972;2023-06-24T12:45:12;4.13;;;1.35;;
50779;SDS011;36748;37.428;-121.972;2023-06-24T12:47:38;2.33;;;1.40;;
50779;SDS011;36748;37.428;-121.972;2023-06-24T12:50:05;1.65;;;1.45;;
50779;SDS011;36748;37.428;-121.972;2023-06-24T12:52:32;1.50;;;1.38;;
50779;SDS011;36748;37.428;-121.972;2023-06-24T12:54:59;1.95;;;1.30;;
50779;SDS011;36748;37.428;-121.972;2023-06-24T12:57:25;1.80;;;1.50;;
50779;SDS011;36748;37.428;-121.972;2023-06-24T12:59:51;1.85;;;1.58;;
50779;SDS011;36748;37.428;-121.972;2023-06-24T13:02:17;1.58;;;1.30;;
50779;SDS011;36748;37.428;-121.972;2023-06-24T13:04:43;1.77;;;1.50;;
50779;SDS011;36748;37.428;-121.972;2023-06-24T13:07:10;1.42;;;1.30;;
50779;SDS011;36748;37.428;-121.972;2023-06-24T13:09:36;1.67;;;1.50;;
50779;SDS011;36748;37.428;-121.972;2023-06-24T13:12:02;2.10;;;1.38;;
50779;SDS011;36748;37.428;-121.972;2023-06-24T13:14:29;1.13;;;1.02;;
50779;SDS011;36748;37.428;-121.972;2023-06-24T13:16:55;1.77;;;1.38;;
50779;SDS011;36748;37.428;-121.972;2023-06-24T13:19:21;1.58;;;1.20;;
50779;SDS011;36748;37.428;-121.972;2023-06-24T13:21:47;1.83;;;1.40;;
50779;SDS011;36748;37.428;-121.972;2023-06-24T13:24:13;1.50;;;1.35;;
50779;SDS011;36748;37.428;-121.972;2023-06-24T13:26:40;2.38;;;1.73;;
50779;SDS011;36748;37.428;-121.972;2023-06-24T13:29:06;2.13;;;1.25;;
50779;SDS011;36748;37.428;-121.972;2023-06-24T13:31:33;1.33;;;1.23;;
50779;SDS011;36748;37.428;-121.972;2023-06-24T13:33:59;2.90;;;1.60;;
50779;SDS011;36748;37.428;-121.972;2023-06-24T13:36:27;1.80;;;1.33;;
50779;SDS011;36748;37.428;-121.972;2023-06-24T13:38:56;2.00;;;1.38;;
50779;SDS011;36748;37.428;-121.972;2023-06-24T13:41:22;1.92;;;1.33;;
50779;SDS011;36748;37.428;-121.972;2023-06-24T13:43:49;2.30;;;1.20;;
50779;SDS011;36748;37.428;-121.972;2023-06-24T13:46:15;1.90;;;1.50;;
50779;SDS011;36748;37.428;-121.972;2023-06-24T13:48:41;1.20;;;1.10;;
50779;SDS011;36748;37.428;-121.972;2023-06-24T13:51:08;1.63;;;1.27;;
50779;SDS011;36748;37.428;-121.972;2023-06-24T13:53:34;1.80;;;1.50;;
50779;SDS011;36748;37.428;-121.972;2023-06-24T13:56:01;1.40;;;1.25;;
50779;SDS011;36748;37.428;-121.972;2023-06-24T13:58:27;2.47;;;1.50;;
50779;SDS011;36748;37.428;-121.972;2023-06-24T14:00:53;1.60;;;1.30;;
50779;SDS011;36748;37.428;-121.972;2023-06-24T14:06:05;2.28;;;1.30;;
50779;SDS011;36748;37.428;-121.972;2023-06-24T14:08:32;2.05;;;1.35;;
50779;SDS011;36748;37.428;-121.972;2023-06-24T14:10:58;5.13;;;1.50;;
50779;SDS011;36748;37.428;-121.972;2023-06-24T14:13:25;3.25;;;1.30;;
50779;SDS011;36748;37.428;-121.972;2023-06-24T14:15:53;2.50;;;1.27;;
50779;SDS011;36748;37.428;-121.972;2023-06-24T14:18:19;4.35;;;1.60;;
50779;SDS011;36748;37.428;-121.972;2023-06-24T14:20:46;1.58;;;1.20;;
50779;SDS011;36748;37.428;-121.972;2023-06-24T14:23:12;3.13;;;1.48;;
50779;SDS011;36748;37.428;-121.972;2023-06-24T14:25:38;3.40;;;1.70;;
50779;SDS011;36748;37.428;-121.972;2023-06-24T14:28:04;3.17;;;1.40;;
50779;SDS011;36748;37.428;-121.972;2023-06-24T14:30:31;2.03;;;1.10;;